createdAt,value
2022-10-18T00:00:06.372Z,8.40
2022-10-18T00:02:33.118Z,7.57
2022-10-18T00:04:59.783Z,7.32
2022-10-18T00:07:26.396Z,7.20
2022-10-18T00:09:53.037Z,7.00
2022-10-18T00:12:19.764Z,7.57
2022-10-18T00:14:49.725Z,6.78
2022-10-18T00:17:16.409Z,6.45
2022-10-18T00:19:43.023Z,6.38
2022-10-18T00:22:09.653Z,6.97
2022-10-18T00:24:36.255Z,7.43
2022-10-18T00:27:02.883Z,6.55
2022-10-18T00:29:29.438Z,6.80
2022-10-18T00:31:56.107Z,6.70
2022-10-18T00:34:22.719Z,7.00
2022-10-18T00:36:49.315Z,6.90
2022-10-18T00:39:18.482Z,8.38
2022-10-18T00:41:46.167Z,6.72
2022-10-18T00:44:12.723Z,7.20
2022-10-18T00:46:42.497Z,7.90
2022-10-18T00:49:16.167Z,8.73
2022-10-18T00:51:45.044Z,9.70
2022-10-18T00:54:13.587Z,8.30
2022-10-18T00:56:40.470Z,10.07
2022-10-18T00:59:08.038Z,8.88
2022-10-18T01:01:34.678Z,9.00
2022-10-18T01:04:01.460Z,10.27
2022-10-18T01:06:29.397Z,9.65
2022-10-18T01:09:18.502Z,11.05
2022-10-18T01:11:54.112Z,11.30
2022-10-18T01:14:30.476Z,11.00
2022-10-18T01:17:08.775Z,12.38
2022-10-18T01:20:03.430Z,11.95
2022-10-18T01:22:35.654Z,13.20
2022-10-18T01:25:14.305Z,12.25
2022-10-18T01:28:18.441Z,12.40
2022-10-18T01:31:00.226Z,11.93
2022-10-18T01:33:38.684Z,13.32
2022-10-18T01:36:37.304Z,10.52
2022-10-18T01:39:16.365Z,10.48
2022-10-18T01:41:45.668Z,11.77
2022-10-18T01:44:19.611Z,11.20
2022-10-18T01:46:47.205Z,10.88
2022-10-18T01:49:14.415Z,12.13
2022-10-18T01:51:41.057Z,13.43
2022-10-18T01:54:08.839Z,13.07
2022-10-18T01:56:38.533Z,11.75
2022-10-18T01:59:24.903Z,12.25
2022-10-18T02:02:14.716Z,12.93
2022-10-18T02:04:50.353Z,12.60
2022-10-18T02:07:28.227Z,13.18
2022-10-18T02:12:44.493Z,14.07
2022-10-18T02:15:16.685Z,12.70
2022-10-18T02:17:45.402Z,13.02
2022-10-18T02:20:16.095Z,13.85
2022-10-18T02:22:46.037Z,11.80
2022-10-18T02:25:21.469Z,11.82
2022-10-18T02:27:48.279Z,11.07
2022-10-18T02:30:15.820Z,11.40
2022-10-18T02:32:58.992Z,11.75
2022-10-18T02:35:31.440Z,12.98
2022-10-18T02:37:59.239Z,12.85
2022-10-18T02:40:26.753Z,14.23
2022-10-18T02:42:58.308Z,14.10
2022-10-18T02:45:26.406Z,14.70
2022-10-18T02:47:53.363Z,15.38
2022-10-18T02:50:19.977Z,14.10
2022-10-18T02:52:46.632Z,14.52
2022-10-18T02:55:13.338Z,14.30
2022-10-18T02:57:40.005Z,14.13
2022-10-18T03:00:07.279Z,13.30
2022-10-18T03:02:34.253Z,9.53
2022-10-18T03:05:00.988Z,14.38
2022-10-18T03:07:27.736Z,13.95
2022-10-18T03:09:54.343Z,13.40
2022-10-18T03:12:20.910Z,13.55
2022-10-18T03:14:47.525Z,14.57
2022-10-18T03:17:14.306Z,13.70
2022-10-18T03:19:40.948Z,12.43
2022-10-18T03:22:07.698Z,12.32
2022-10-18T03:24:34.279Z,13.07
2022-10-18T03:27:00.889Z,12.63
2022-10-18T03:29:27.543Z,13.27
2022-10-18T03:31:54.171Z,12.77
2022-10-18T03:34:20.769Z,12.80
2022-10-18T03:36:47.409Z,13.95
2022-10-18T03:39:14.189Z,12.00
2022-10-18T03:41:40.827Z,13.40
2022-10-18T03:44:07.609Z,14.10
2022-10-18T03:46:34.201Z,14.75
2022-10-18T03:49:00.809Z,14.98
2022-10-18T03:51:27.488Z,13.43
2022-10-18T03:53:54.072Z,14.55
2022-10-18T03:56:20.633Z,14.52
2022-10-18T03:58:47.293Z,15.00
2022-10-18T04:01:13.930Z,14.32
2022-10-18T04:03:40.624Z,15.57
2022-10-18T04:06:08.272Z,15.27
2022-10-18T04:08:34.894Z,14.95
2022-10-18T04:11:08.390Z,14.75
2022-10-18T04:13:35.662Z,17.05
2022-10-18T04:16:02.289Z,17.30
2022-10-18T04:18:29.321Z,15.75
2022-10-18T04:20:55.902Z,15.73
2022-10-18T04:23:22.560Z,16.35
2022-10-18T04:25:49.176Z,16.83
2022-10-18T04:28:15.798Z,16.08
2022-10-18T04:30:42.540Z,15.93
2022-10-18T04:33:09.145Z,16.33
2022-10-18T04:35:35.713Z,15.52
2022-10-18T04:38:02.304Z,15.80
2022-10-18T04:40:28.908Z,16.38
2022-10-18T04:42:56.028Z,15.05
2022-10-18T04:45:22.641Z,15.40
2022-10-18T04:47:49.278Z,14.77
2022-10-18T04:50:16.033Z,14.90
2022-10-18T04:52:42.653Z,14.02
2022-10-18T04:55:09.638Z,13.95
2022-10-18T04:57:36.325Z,15.10
2022-10-18T05:00:03.853Z,14.85
2022-10-18T05:02:31.050Z,13.68
2022-10-18T05:04:57.983Z,13.73
2022-10-18T05:07:24.569Z,14.45
2022-10-18T05:09:51.221Z,16.40
2022-10-18T05:12:17.875Z,15.80
2022-10-18T05:14:44.509Z,17.90
2022-10-18T05:17:11.191Z,17.15
2022-10-18T05:19:37.834Z,16.60
2022-10-18T05:22:04.459Z,17.17
2022-10-18T05:24:31.171Z,16.63
2022-10-18T05:26:58.332Z,18.60
2022-10-18T05:29:25.243Z,17.75
2022-10-18T05:31:52.194Z,17.13
2022-10-18T05:34:20.683Z,19.00
2022-10-18T05:36:49.531Z,18.15
2022-10-18T05:39:16.152Z,17.67
2022-10-18T05:41:42.820Z,17.08
2022-10-18T05:44:09.739Z,17.77
2022-10-18T05:46:36.456Z,18.35
2022-10-18T05:49:03.130Z,17.02
2022-10-18T05:51:29.768Z,16.98
2022-10-18T05:53:56.422Z,16.48
2022-10-18T05:56:23.173Z,17.80
2022-10-18T05:58:52.035Z,15.27
2022-10-18T06:01:18.876Z,16.25
2022-10-18T06:03:45.529Z,16.35
2022-10-18T06:06:13.375Z,15.07
2022-10-18T06:08:41.627Z,17.27
2022-10-18T06:13:41.058Z,16.00
2022-10-18T06:16:08.310Z,13.93
2022-10-18T06:18:34.982Z,14.03
2022-10-18T06:21:01.720Z,13.80
2022-10-18T06:23:28.818Z,14.57
2022-10-18T06:26:13.580Z,12.30
2022-10-18T06:28:40.255Z,12.27
2022-10-18T06:31:07.012Z,13.32
2022-10-18T06:33:35.498Z,12.27
2022-10-18T06:36:08.385Z,12.27
2022-10-18T06:38:35.842Z,12.25
2022-10-18T06:41:03.660Z,9.73
2022-10-18T06:43:30.320Z,11.23
2022-10-18T06:45:57.227Z,11.68
2022-10-18T06:48:24.651Z,10.38
2022-10-18T06:50:59.953Z,11.02
2022-10-18T06:53:29.146Z,10.38
2022-10-18T06:56:03.886Z,10.07
2022-10-18T06:58:31.568Z,10.73
2022-10-18T07:00:58.887Z,10.25
2022-10-18T07:03:26.404Z,12.50
2022-10-18T07:05:53.307Z,9.52
2022-10-18T07:08:19.951Z,10.70
2022-10-18T07:10:53.602Z,11.20
2022-10-18T07:13:32.083Z,9.48
2022-10-18T07:16:18.391Z,10.00
2022-10-18T07:18:52.626Z,10.85
2022-10-18T07:21:20.940Z,10.38
2022-10-18T07:26:38.614Z,9.40
2022-10-18T07:29:11.129Z,9.57
2022-10-18T07:31:41.161Z,10.15
2022-10-18T07:34:11.692Z,9.95
2022-10-18T07:36:38.967Z,11.15
2022-10-18T07:39:05.642Z,11.57
2022-10-18T07:41:33.998Z,9.57
2022-10-18T07:44:01.481Z,9.80
2022-10-18T07:46:28.206Z,9.65
2022-10-18T07:48:54.920Z,9.32
2022-10-18T07:51:22.203Z,9.27
2022-10-18T07:53:49.079Z,8.73
2022-10-18T07:56:20.793Z,9.13
2022-10-18T07:58:52.610Z,9.32
2022-10-18T08:01:20.569Z,8.55
2022-10-18T08:03:47.270Z,9.18
2022-10-18T08:06:16.737Z,8.52
2022-10-18T08:08:44.313Z,7.40
2022-10-18T08:11:15.070Z,8.15
2022-10-18T08:13:42.605Z,6.85
2022-10-18T08:16:12.349Z,7.82
2022-10-18T08:18:39.085Z,6.95
2022-10-18T08:21:08.231Z,7.10
2022-10-18T08:23:35.071Z,7.20
2022-10-18T08:26:03.681Z,6.45
2022-10-18T08:28:30.551Z,6.18
2022-10-18T08:30:57.339Z,5.10
2022-10-18T08:33:24.042Z,5.00
2022-10-18T08:35:58.599Z,4.35
2022-10-18T08:38:25.788Z,3.90
2022-10-18T08:40:52.717Z,5.90
2022-10-18T08:44:00.200Z,3.63
2022-10-18T08:46:29.166Z,3.58
2022-10-18T08:48:57.030Z,2.97
2022-10-18T08:51:34.521Z,2.70
2022-10-18T08:54:11.066Z,3.83
2022-10-18T08:56:40.951Z,3.72
2022-10-18T08:59:12.027Z,4.18
2022-10-18T09:01:57.051Z,3.45
2022-10-18T09:04:54.553Z,4.30
2022-10-18T09:07:51.787Z,3.35
2022-10-18T09:10:36.806Z,3.20
2022-10-18T09:13:27.733Z,2.78
2022-10-18T09:15:59.944Z,2.70
2022-10-18T09:18:41.813Z,3.83
2022-10-18T09:21:38.297Z,2.20
2022-10-18T09:24:22.123Z,2.03
2022-10-18T09:26:54.492Z,1.95
2022-10-18T09:29:41.114Z,2.45
2022-10-18T09:32:26.557Z,1.88
2022-10-18T09:35:06.383Z,1.95
2022-10-18T09:37:35.021Z,2.30
2022-10-18T09:40:16.597Z,2.20
2022-10-18T09:42:55.895Z,2.15
2022-10-18T09:45:25.470Z,2.25
2022-10-18T09:48:04.867Z,1.95
2022-10-18T09:51:00.897Z,1.50
2022-10-18T09:53:44.998Z,2.20
2022-10-18T09:56:18.336Z,2.35
2022-10-18T09:58:47.661Z,2.35
2022-10-18T10:01:23.061Z,2.58
2022-10-18T10:03:50.027Z,3.28
2022-10-18T10:06:28.972Z,2.03
2022-10-18T10:11:38.279Z,2.25
2022-10-18T10:14:19.632Z,2.65
2022-10-18T10:16:51.847Z,3.15
2022-10-18T10:19:24.283Z,2.00
2022-10-18T10:21:55.809Z,2.38
2022-10-18T10:25:00.720Z,2.08
2022-10-18T10:27:43.665Z,3.75
2022-10-18T10:30:32.168Z,3.10
2022-10-18T10:32:59.129Z,2.58
2022-10-18T10:35:48.999Z,2.60
2022-10-18T10:38:25.717Z,2.92
2022-10-18T10:40:52.521Z,2.25
2022-10-18T10:43:40.458Z,2.63
2022-10-18T10:46:13.426Z,2.33
2022-10-18T10:49:04.462Z,2.83
2022-10-18T10:51:41.447Z,3.08
2022-10-18T10:54:21.986Z,2.65
2022-10-18T10:57:04.965Z,2.83
2022-10-18T10:59:49.275Z,2.60
2022-10-18T11:02:17.769Z,2.33
2022-10-18T11:04:55.611Z,3.00
2022-10-18T11:07:35.779Z,2.60
2022-10-18T11:10:11.728Z,2.45
2022-10-18T11:12:43.165Z,2.30
2022-10-18T11:15:36.057Z,2.47
2022-10-18T11:18:05.611Z,2.25
2022-10-18T11:20:43.368Z,2.53
2022-10-18T11:23:17.607Z,2.53
2022-10-18T11:26:07.564Z,2.38
2022-10-18T11:28:43.128Z,2.10
2022-10-18T11:31:30.133Z,2.17
2022-10-18T11:34:24.645Z,2.35
2022-10-18T11:37:34.534Z,2.25
2022-10-18T11:40:20.224Z,2.10
2022-10-18T11:42:59.146Z,2.95
2022-10-18T11:45:34.748Z,2.20
2022-10-18T11:48:22.683Z,2.60
2022-10-18T11:51:01.600Z,3.10
2022-10-18T11:54:14.623Z,2.13
2022-10-18T11:56:43.941Z,2.70
2022-10-18T11:59:32.783Z,2.60
2022-10-18T12:02:36.385Z,2.10
2022-10-18T12:05:22.683Z,2.53
2022-10-18T12:07:58.814Z,2.28
2022-10-18T12:10:39.280Z,2.40
2022-10-18T12:13:23.081Z,3.03
2022-10-18T12:15:51.539Z,2.70
2022-10-18T12:18:23.458Z,2.03
2022-10-18T12:20:54.565Z,1.70
2022-10-18T12:23:30.192Z,1.98
2022-10-18T12:26:04.048Z,1.63
2022-10-18T12:28:55.620Z,1.58
2022-10-18T12:31:28.084Z,1.75
2022-10-18T12:34:09.759Z,1.75
2022-10-18T12:36:59.706Z,1.73
2022-10-18T12:39:43.679Z,1.83
2022-10-18T12:42:23.998Z,1.55
2022-10-18T12:45:03.674Z,2.03
2022-10-18T12:47:31.360Z,1.65
2022-10-18T12:50:01.486Z,1.67
2022-10-18T12:52:30.481Z,2.03
2022-10-18T12:55:18.387Z,1.40
2022-10-18T12:57:54.185Z,1.40
2022-10-18T13:00:29.518Z,1.77
2022-10-18T13:03:16.592Z,1.98
2022-10-18T13:05:54.986Z,1.77
2022-10-18T13:11:12.929Z,1.45
2022-10-18T13:13:51.623Z,1.63
2022-10-18T13:16:39.481Z,2.05
2022-10-18T13:19:25.039Z,1.67
2022-10-18T13:22:32.901Z,1.50
2022-10-18T13:25:19.399Z,1.65
2022-10-18T13:28:00.363Z,1.60
2022-10-18T13:30:45.485Z,2.10
2022-10-18T13:33:33.029Z,1.52
2022-10-18T13:36:04.681Z,2.40
2022-10-18T13:38:43.094Z,2.05
2022-10-18T13:41:31.332Z,2.47
2022-10-18T13:44:25.064Z,2.30
2022-10-18T13:46:51.671Z,1.80
2022-10-18T13:49:38.581Z,2.42
2022-10-18T13:52:27.089Z,1.80
2022-10-18T13:55:14.858Z,1.80
2022-10-18T13:57:47.484Z,1.75
2022-10-18T14:00:32.485Z,1.52
2022-10-18T14:03:02.274Z,2.10
2022-10-18T14:05:52.137Z,1.52
2022-10-18T14:11:04.130Z,1.60
2022-10-18T14:13:52.530Z,1.83
2022-10-18T14:16:32.056Z,1.90
2022-10-18T14:19:09.126Z,1.30
2022-10-18T14:21:41.616Z,1.80
2022-10-18T14:24:20.016Z,1.60
2022-10-18T14:26:46.878Z,1.83
2022-10-18T14:29:19.675Z,1.55
2022-10-18T14:31:53.500Z,1.90
2022-10-18T14:34:20.826Z,1.75
2022-10-18T14:36:49.614Z,1.77
2022-10-18T14:39:27.474Z,1.75
2022-10-18T14:41:56.006Z,1.52
2022-10-18T14:44:32.655Z,1.33
2022-10-18T14:47:14.746Z,1.58
2022-10-18T14:49:46.402Z,1.60
2022-10-18T14:52:17.177Z,1.80
2022-10-18T14:54:44.346Z,2.20
2022-10-18T14:57:23.609Z,1.75
2022-10-18T14:59:58.251Z,1.95
2022-10-18T15:02:27.531Z,3.25
2022-10-18T15:04:59.809Z,2.33
2022-10-18T15:07:31.153Z,4.80
2022-10-18T15:10:00.828Z,4.60
2022-10-18T15:12:36.886Z,3.67
2022-10-18T15:15:18.569Z,3.97
2022-10-18T15:17:47.016Z,2.10
2022-10-18T15:20:25.340Z,1.48
2022-10-18T15:22:53.595Z,1.95
2022-10-18T15:28:00.411Z,2.20
2022-10-18T15:33:10.287Z,2.25
2022-10-18T15:35:39.195Z,1.90
2022-10-18T15:38:24.440Z,2.13
2022-10-18T15:40:51.514Z,2.33
2022-10-18T15:43:24.323Z,3.08
2022-10-18T15:46:03.249Z,4.97
2022-10-18T15:48:32.908Z,3.20
2022-10-18T15:51:04.948Z,2.35
2022-10-18T15:53:34.950Z,1.80
2022-10-18T15:56:04.591Z,1.95
2022-10-18T15:58:44.026Z,2.15
2022-10-18T16:01:17.384Z,3.03
2022-10-18T16:03:46.241Z,2.50
2022-10-18T16:06:17.380Z,1.90
2022-10-18T16:08:52.946Z,1.92
2022-10-18T16:11:24.889Z,2.65
2022-10-18T16:13:55.173Z,2.55
2022-10-18T16:16:27.136Z,3.95
2022-10-18T16:18:54.435Z,3.08
2022-10-18T16:21:27.079Z,3.40
2022-10-18T16:23:54.251Z,3.50
2022-10-18T16:26:22.231Z,4.25
2022-10-18T16:28:49.741Z,4.75
2022-10-18T16:31:22.374Z,5.03
2022-10-18T16:33:50.120Z,4.38
2022-10-18T16:36:18.873Z,4.28
2022-10-18T16:38:46.353Z,4.65
2022-10-18T16:41:14.711Z,5.43
2022-10-18T16:43:43.200Z,5.55
2022-10-18T16:46:17.507Z,4.35
2022-10-18T16:48:44.490Z,4.95
2022-10-18T16:51:12.101Z,4.65
2022-10-18T16:53:38.986Z,5.70
2022-10-18T16:56:11.892Z,4.07
2022-10-18T16:58:38.577Z,4.15
2022-10-18T17:01:08.115Z,4.45
2022-10-18T17:03:35.800Z,5.10
2022-10-18T17:06:02.498Z,4.38
2022-10-18T17:08:29.555Z,3.88
2022-10-18T17:10:58.280Z,3.30
2022-10-18T17:13:26.603Z,3.25
2022-10-18T17:15:53.578Z,3.42
2022-10-18T17:18:23.593Z,3.67
2022-10-18T17:20:50.586Z,3.88
2022-10-18T17:23:17.358Z,4.10
2022-10-18T17:25:57.552Z,4.75
2022-10-18T17:28:31.785Z,4.03
2022-10-18T17:30:58.467Z,4.45
2022-10-18T17:33:25.183Z,4.10
2022-10-18T17:35:52.069Z,3.92
2022-10-18T17:38:18.750Z,4.30
2022-10-18T17:40:45.423Z,4.38
2022-10-18T17:43:13.754Z,4.40
2022-10-18T17:45:54.146Z,4.90
2022-10-18T17:48:21.401Z,4.80
2022-10-18T17:50:48.012Z,2.88
2022-10-18T17:53:14.777Z,2.80
2022-10-18T17:55:41.479Z,2.55
2022-10-18T17:58:08.397Z,2.50
2022-10-18T18:00:35.332Z,3.33
2022-10-18T18:03:02.506Z,2.72
2022-10-18T18:05:33.886Z,3.55
2022-10-18T18:08:03.864Z,3.60
2022-10-18T18:10:33.466Z,4.13
2022-10-18T18:13:00.665Z,3.38
2022-10-18T18:15:27.419Z,3.00
2022-10-18T18:17:57.858Z,3.25
2022-10-18T18:20:26.311Z,3.33
2022-10-18T18:22:53.412Z,3.80
2022-10-18T18:25:20.158Z,5.40
2022-10-18T18:27:47.444Z,3.78
2022-10-18T18:30:15.516Z,3.97
2022-10-18T18:32:42.202Z,3.95
2022-10-18T18:35:08.871Z,3.70
2022-10-18T18:37:35.536Z,3.72
2022-10-18T18:40:02.193Z,4.10
2022-10-18T18:42:28.865Z,3.92
2022-10-18T18:44:55.487Z,3.45
2022-10-18T18:47:23.642Z,4.88
2022-10-18T18:52:18.312Z,5.60
2022-10-18T18:54:45.149Z,5.72
2022-10-18T18:57:11.767Z,4.72
2022-10-18T18:59:38.454Z,6.30
2022-10-18T19:02:05.133Z,6.53
2022-10-18T19:04:31.809Z,5.90
2022-10-18T19:06:58.450Z,10.32
2022-10-18T19:09:27.232Z,19.52
2022-10-18T19:11:56.278Z,13.43
2022-10-18T19:14:25.013Z,9.77
2022-10-18T19:17:01.705Z,5.65
2022-10-18T19:19:30.076Z,6.78
2022-10-18T19:22:02.171Z,5.55
2022-10-18T19:24:32.634Z,5.75
2022-10-18T19:27:02.477Z,7.63
2022-10-18T19:29:32.450Z,5.57
2022-10-18T19:32:01.560Z,5.57
2022-10-18T19:34:30.037Z,5.75
2022-10-18T19:36:57.153Z,6.65
2022-10-18T19:39:29.909Z,7.63
2022-10-18T19:41:58.491Z,5.32
2022-10-18T19:44:28.725Z,4.38
2022-10-18T19:46:55.607Z,4.20
2022-10-18T19:49:22.307Z,4.70
2022-10-18T19:51:49.367Z,4.32
2022-10-18T19:54:16.647Z,4.82
2022-10-18T19:56:43.680Z,4.88
2022-10-18T19:59:11.474Z,4.15
2022-10-18T20:01:38.636Z,4.18
2022-10-18T20:04:06.594Z,4.50
2022-10-18T20:06:34.039Z,4.50
2022-10-18T20:09:01.358Z,3.78
2022-10-18T20:11:29.120Z,4.50
2022-10-18T20:13:56.742Z,4.32
2022-10-18T20:16:28.373Z,3.85
2022-10-18T20:19:04.115Z,4.30
2022-10-18T20:21:33.131Z,3.97
2022-10-18T20:23:59.790Z,4.10
2022-10-18T20:26:26.548Z,4.63
2022-10-18T20:28:58.840Z,4.75
2022-10-18T20:31:30.522Z,4.43
2022-10-18T20:33:59.755Z,4.55
2022-10-18T20:36:27.714Z,4.75
2022-10-18T20:38:55.039Z,5.25
2022-10-18T20:41:42.102Z,4.90
2022-10-18T20:44:13.518Z,5.15
2022-10-18T20:46:40.940Z,5.85
2022-10-18T20:49:10.450Z,5.97
2022-10-18T20:51:37.106Z,5.85
2022-10-18T20:54:07.009Z,6.50
2022-10-18T20:56:35.483Z,8.63
2022-10-18T20:59:03.165Z,5.55
2022-10-18T21:01:32.021Z,4.90
2022-10-18T21:04:01.276Z,5.20
2022-10-18T21:06:46.457Z,5.88
2022-10-18T21:09:15.831Z,4.82
2022-10-18T21:11:45.441Z,4.78
2022-10-18T21:14:20.573Z,4.50
2022-10-18T21:16:48.007Z,4.97
2022-10-18T21:19:16.225Z,3.72
2022-10-18T21:24:11.442Z,4.88
2022-10-18T21:26:38.618Z,4.03
2022-10-18T21:29:06.637Z,4.57
2022-10-18T21:31:36.427Z,3.97
2022-10-18T21:34:06.421Z,4.15
2022-10-18T21:36:37.149Z,4.20
2022-10-18T21:39:06.254Z,4.18
2022-10-18T21:41:32.924Z,4.43
2022-10-18T21:44:00.096Z,5.30
2022-10-18T21:46:27.146Z,4.47
2022-10-18T21:48:55.677Z,4.65
2022-10-18T21:51:24.754Z,7.57
2022-10-18T21:53:53.973Z,4.85
2022-10-18T21:56:31.940Z,4.63
2022-10-18T21:58:59.429Z,5.07
2022-10-18T22:01:27.346Z,5.55
2022-10-18T22:03:55.992Z,5.60
2022-10-18T22:06:23.456Z,5.53
2022-10-18T22:08:56.113Z,5.97
2022-10-18T22:11:25.933Z,6.30
2022-10-18T22:13:53.393Z,6.68
2022-10-18T22:16:20.550Z,6.60
2022-10-18T22:18:49.499Z,6.53
2022-10-18T22:21:18.022Z,7.03
2022-10-18T22:23:50.297Z,6.45
2022-10-18T22:26:18.263Z,7.60
2022-10-18T22:28:46.081Z,8.82
2022-10-18T22:31:24.479Z,8.70
2022-10-18T22:33:58.974Z,9.02
2022-10-18T22:36:26.480Z,9.30
2022-10-18T22:38:53.426Z,8.40
2022-10-18T22:41:20.107Z,6.80
2022-10-18T22:43:47.826Z,7.43
2022-10-18T22:46:15.287Z,7.55
2022-10-18T22:48:42.973Z,6.40
2022-10-18T22:51:10.232Z,7.57
2022-10-18T22:53:37.856Z,8.38
2022-10-18T22:56:05.347Z,7.63
2022-10-18T22:58:32.202Z,7.38
2022-10-18T23:01:03.000Z,7.13
2022-10-18T23:03:30.204Z,7.55
2022-10-18T23:05:58.117Z,7.22
2022-10-18T23:08:25.058Z,9.18
2022-10-18T23:10:58.945Z,8.13
2022-10-18T23:13:29.235Z,8.38
2022-10-18T23:16:04.380Z,8.70
2022-10-18T23:18:32.337Z,8.00
2022-10-18T23:21:07.721Z,8.68
2022-10-18T23:23:35.982Z,7.80
2022-10-18T23:28:36.711Z,9.00
2022-10-18T23:31:08.422Z,9.00
2022-10-18T23:33:35.325Z,9.07
2022-10-18T23:36:01.992Z,9.68
2022-10-18T23:38:30.559Z,9.80
2022-10-18T23:40:57.895Z,9.50
2022-10-18T23:43:24.674Z,7.00
2022-10-18T23:45:51.592Z,9.88
2022-10-18T23:48:18.196Z,10.18
2022-10-18T23:50:44.953Z,10.23
2022-10-18T23:53:11.561Z,10.30
2022-10-18T23:55:38.217Z,9.30
2022-10-18T23:58:04.867Z,10.05
